Weather at Manitowoc County Airport

Public forecast

Using degrees Fahrenheit for public forecast. Weather courtesy of forecast.io.

Current aviation weather report (METAR) for Manitowoc County Airport

Retrieved 2021/12/03 09:36 UTC (1 minute ago):

KMTW 030936Z AUTO 00000KT 3SM UP BR OVC022 01/00 A3009 RMK AO2 RAE05UPB05SNB06E18 P0000 FZRANO

Aviation forecast (TAF) for Manitowoc County Airport

Retrieved 2021/12/03 06:22 UTC (3 hours ago):

TAF KMTW 030520Z 0306/0406 VRB03KT P6SM SCT050 BKN100 FM030800 VRB03KT 5SM -SHSN SCT030 OVC070 FM031200 VRB03KT 4SM -SN OVC025 FM031500 20005KT 6SM -SHSN BKN015 FM031800 24007KT P6SM BKN012 FM032300 28008G15KT P6SM SCT015 FM040400 29009G16KT P6SM SCT070